sensor_id;sensor_type;location;lat;lon;timestamp;temperature;humidity
981;DHT22;479;53.514;9.994;2022-12-07T00:01:23;3.90;99.90
981;DHT22;479;53.514;9.994;2022-12-07T00:03:52;4.00;99.90
981;DHT22;479;53.514;9.994;2022-12-07T00:06:20;4.00;99.90
981;DHT22;479;53.514;9.994;2022-12-07T00:08:48;4.00;99.90
981;DHT22;479;53.514;9.994;2022-12-07T00:11:16;4.00;99.90
981;DHT22;479;53.514;9.994;2022-12-07T00:13:45;4.10;99.90
981;DHT22;479;53.514;9.994;2022-12-07T00:16:13;4.10;99.90
981;DHT22;479;53.514;9.994;2022-12-07T00:18:41;4.10;99.90
981;DHT22;479;53.514;9.994;2022-12-07T00:21:10;4.10;99.90
981;DHT22;479;53.514;9.994;2022-12-07T00:23:37;4.10;99.90
981;DHT22;479;53.514;9.994;2022-12-07T00:26:06;4.10;99.90
981;DHT22;479;53.514;9.994;2022-12-07T00:28:33;4.10;99.90
981;DHT22;479;53.514;9.994;2022-12-07T00:31:04;4.10;99.90
981;DHT22;479;53.514;9.994;2022-12-07T00:33:32;4.10;99.90
981;DHT22;479;53.514;9.994;2022-12-07T00:35:59;4.20;99.90
981;DHT22;479;53.514;9.994;2022-12-07T00:38:28;4.20;99.90
981;DHT22;479;53.514;9.994;2022-12-07T00:40:56;4.10;99.90
981;DHT22;479;53.514;9.994;2022-12-07T00:43:23;4.10;99.90
981;DHT22;479;53.514;9.994;2022-12-07T00:45:51;4.10;99.90
981;DHT22;479;53.514;9.994;2022-12-07T00:48:19;4.00;99.90
981;DHT22;479;53.514;9.994;2022-12-07T00:50:46;4.00;99.90
981;DHT22;479;53.514;9.994;2022-12-07T00:53:14;4.00;99.90
981;DHT22;479;53.514;9.994;2022-12-07T00:55:41;4.00;99.90
981;DHT22;479;53.514;9.994;2022-12-07T00:58:08;4.10;99.90
981;DHT22;479;53.514;9.994;2022-12-07T01:00:36;4.10;99.90
981;DHT22;479;53.514;9.994;2022-12-07T01:03:04;4.10;99.90
981;DHT22;479;53.514;9.994;2022-12-07T01:05:32;4.10;99.90
981;DHT22;479;53.514;9.994;2022-12-07T01:08:02;4.20;99.90
981;DHT22;479;53.514;9.994;2022-12-07T01:10:29;4.10;99.90
981;DHT22;479;53.514;9.994;2022-12-07T01:12:57;4.20;99.90
981;DHT22;479;53.514;9.994;2022-12-07T01:15:24;4.20;99.90
981;DHT22;479;53.514;9.994;2022-12-07T01:17:51;4.20;99.90
981;DHT22;479;53.514;9.994;2022-12-07T01:20:18;4.20;99.90
981;DHT22;479;53.514;9.994;2022-12-07T01:22:46;4.10;99.90
981;DHT22;479;53.514;9.994;2022-12-07T01:25:13;4.10;99.90
981;DHT22;479;53.514;9.994;2022-12-07T01:27:40;4.10;99.90
981;DHT22;479;53.514;9.994;2022-12-07T01:30:09;4.20;99.90
981;DHT22;479;53.514;9.994;2022-12-07T01:32:36;4.20;99.90
981;DHT22;479;53.514;9.994;2022-12-07T01:35:04;4.20;99.90
981;DHT22;479;53.514;9.994;2022-12-07T01:37:34;4.30;99.90
981;DHT22;479;53.514;9.994;2022-12-07T01:40:04;4.30;99.90
981;DHT22;479;53.514;9.994;2022-12-07T01:42:32;4.30;99.90
981;DHT22;479;53.514;9.994;2022-12-07T01:45:36;4.30;99.90
981;DHT22;479;53.514;9.994;2022-12-07T01:48:04;4.30;99.90
981;DHT22;479;53.514;9.994;2022-12-07T01:50:32;4.30;99.90
981;DHT22;479;53.514;9.994;2022-12-07T01:53:02;4.30;99.90
981;DHT22;479;53.514;9.994;2022-12-07T01:55:31;4.20;99.90
981;DHT22;479;53.514;9.994;2022-12-07T01:57:59;4.20;99.90
981;DHT22;479;53.514;9.994;2022-12-07T02:00:26;4.20;99.90
981;DHT22;479;53.514;9.994;2022-12-07T02:02:55;4.20;99.90
981;DHT22;479;53.514;9.994;2022-12-07T02:05:25;4.10;99.90
981;DHT22;479;53.514;9.994;2022-12-07T02:07:55;4.10;99.90
981;DHT22;479;53.514;9.994;2022-12-07T02:10:24;4.10;99.90
981;DHT22;479;53.514;9.994;2022-12-07T02:12:55;4.20;99.90
981;DHT22;479;53.514;9.994;2022-12-07T02:15:28;4.10;99.90
981;DHT22;479;53.514;9.994;2022-12-07T02:18:07;4.00;99.90
981;DHT22;479;53.514;9.994;2022-12-07T02:20:39;4.00;99.90
981;DHT22;479;53.514;9.994;2022-12-07T02:23:50;3.90;99.90
981;DHT22;479;53.514;9.994;2022-12-07T02:29:40;3.90;99.90
981;DHT22;479;53.514;9.994;2022-12-07T02:32:15;3.90;99.90
981;DHT22;479;53.514;9.994;2022-12-07T02:34:48;3.90;99.90
981;DHT22;479;53.514;9.994;2022-12-07T02:37:27;3.80;99.90
981;DHT22;479;53.514;9.994;2022-12-07T02:40:01;3.80;99.90
981;DHT22;479;53.514;9.994;2022-12-07T02:42:33;3.80;99.90
981;DHT22;479;53.514;9.994;2022-12-07T02:45:05;3.70;99.90
981;DHT22;479;53.514;9.994;2022-12-07T02:47:34;3.70;99.90
981;DHT22;479;53.514;9.994;2022-12-07T02:50:04;3.70;99.90
981;DHT22;479;53.514;9.994;2022-12-07T02:52:31;3.70;99.90
981;DHT22;479;53.514;9.994;2022-12-07T02:54:58;3.70;99.90
981;DHT22;479;53.514;9.994;2022-12-07T02:57:40;3.70;99.90
981;DHT22;479;53.514;9.994;2022-12-07T03:00:11;3.70;99.90
981;DHT22;479;53.514;9.994;2022-12-07T03:02:48;3.70;99.90
981;DHT22;479;53.514;9.994;2022-12-07T03:05:27;3.60;99.90
981;DHT22;479;53.514;9.994;2022-12-07T03:08:02;3.60;99.90
981;DHT22;479;53.514;9.994;2022-12-07T03:10:36;3.60;99.90
981;DHT22;479;53.514;9.994;2022-12-07T03:13:11;3.60;99.90
981;DHT22;479;53.514;9.994;2022-12-07T03:15:46;3.60;99.90
981;DHT22;479;53.514;9.994;2022-12-07T03:18:16;3.60;99.90
981;DHT22;479;53.514;9.994;2022-12-07T03:20:46;3.50;99.90
981;DHT22;479;53.514;9.994;2022-12-07T03:23:17;3.60;99.90
981;DHT22;479;53.514;9.994;2022-12-07T03:25:48;3.60;99.90
981;DHT22;479;53.514;9.994;2022-12-07T03:28:19;3.50;99.90
981;DHT22;479;53.514;9.994;2022-12-07T03:30:52;3.50;99.90
981;DHT22;479;53.514;9.994;2022-12-07T03:33:25;3.50;99.90
981;DHT22;479;53.514;9.994;2022-12-07T03:35:59;3.50;99.90
981;DHT22;479;53.514;9.994;2022-12-07T03:38:31;3.40;99.90
981;DHT22;479;53.514;9.994;2022-12-07T03:41:03;3.40;99.90
981;DHT22;479;53.514;9.994;2022-12-07T03:43:32;3.50;99.90
981;DHT22;479;53.514;9.994;2022-12-07T03:46:08;3.50;99.90
981;DHT22;479;53.514;9.994;2022-12-07T03:48:46;3.40;99.90
981;DHT22;479;53.514;9.994;2022-12-07T03:51:22;3.40;99.90
981;DHT22;479;53.514;9.994;2022-12-07T03:53:54;3.40;99.90
981;DHT22;479;53.514;9.994;2022-12-07T03:56:23;3.40;99.90
981;DHT22;479;53.514;9.994;2022-12-07T03:58:52;3.30;99.90
981;DHT22;479;53.514;9.994;2022-12-07T04:01:22;3.30;99.90
981;DHT22;479;53.514;9.994;2022-12-07T04:03:49;3.30;99.90
981;DHT22;479;53.514;9.994;2022-12-07T04:06:16;3.30;99.90
981;DHT22;479;53.514;9.994;2022-12-07T04:08:43;3.30;99.90
981;DHT22;479;53.514;9.994;2022-12-07T04:11:10;3.30;99.90
981;DHT22;479;53.514;9.994;2022-12-07T04:13:37;3.20;99.90
981;DHT22;479;53.514;9.994;2022-12-07T04:16:18;3.20;99.90
981;DHT22;479;53.514;9.994;2022-12-07T04:18:46;3.20;99.90
981;DHT22;479;53.514;9.994;2022-12-07T04:21:13;3.20;99.90
981;DHT22;479;53.514;9.994;2022-12-07T04:23:40;3.20;99.90
981;DHT22;479;53.514;9.994;2022-12-07T04:26:07;3.20;99.90
981;DHT22;479;53.514;9.994;2022-12-07T04:28:33;3.20;99.90
981;DHT22;479;53.514;9.994;2022-12-07T04:31:00;3.20;99.90
981;DHT22;479;53.514;9.994;2022-12-07T04:33:27;3.20;99.90
981;DHT22;479;53.514;9.994;2022-12-07T04:35:56;3.20;99.90
981;DHT22;479;53.514;9.994;2022-12-07T04:38:22;3.20;99.90
981;DHT22;479;53.514;9.994;2022-12-07T04:40:49;3.20;99.90
981;DHT22;479;53.514;9.994;2022-12-07T04:43:16;3.30;99.90
981;DHT22;479;53.514;9.994;2022-12-07T04:45:46;3.20;99.90
981;DHT22;479;53.514;9.994;2022-12-07T04:48:13;3.20;99.90
981;DHT22;479;53.514;9.994;2022-12-07T04:50:39;3.20;99.90
981;DHT22;479;53.514;9.994;2022-12-07T04:53:08;3.20;99.90
981;DHT22;479;53.514;9.994;2022-12-07T04:55:34;3.20;99.90
981;DHT22;479;53.514;9.994;2022-12-07T04:58:01;3.10;99.90
981;DHT22;479;53.514;9.994;2022-12-07T05:00:28;3.10;99.90
981;DHT22;479;53.514;9.994;2022-12-07T05:02:55;3.10;99.90
981;DHT22;479;53.514;9.994;2022-12-07T05:05:22;3.00;99.90
981;DHT22;479;53.514;9.994;2022-12-07T05:07:49;3.10;99.90
981;DHT22;479;53.514;9.994;2022-12-07T05:10:18;3.00;99.90
981;DHT22;479;53.514;9.994;2022-12-07T05:12:45;3.00;99.90
981;DHT22;479;53.514;9.994;2022-12-07T05:15:13;3.00;99.90
981;DHT22;479;53.514;9.994;2022-12-07T05:17:40;3.10;99.90
981;DHT22;479;53.514;9.994;2022-12-07T05:20:08;3.10;99.90
981;DHT22;479;53.514;9.994;2022-12-07T05:22:35;3.00;99.90
981;DHT22;479;53.514;9.994;2022-12-07T05:25:02;3.00;99.90
981;DHT22;479;53.514;9.994;2022-12-07T05:27:31;3.00;99.90
981;DHT22;479;53.514;9.994;2022-12-07T05:29:58;3.00;99.90
981;DHT22;479;53.514;9.994;2022-12-07T05:32:24;3.00;99.90
981;DHT22;479;53.514;9.994;2022-12-07T05:34:51;3.00;99.90
981;DHT22;479;53.514;9.994;2022-12-07T05:37:20;3.00;99.90
981;DHT22;479;53.514;9.994;2022-12-07T05:39:47;3.00;99.90
981;DHT22;479;53.514;9.994;2022-12-07T05:42:14;3.00;99.90
981;DHT22;479;53.514;9.994;2022-12-07T05:44:43;3.00;99.90
981;DHT22;479;53.514;9.994;2022-12-07T05:47:11;3.00;99.90
981;DHT22;479;53.514;9.994;2022-12-07T05:49:38;3.00;99.90
981;DHT22;479;53.514;9.994;2022-12-07T05:52:05;2.80;99.90
981;DHT22;479;53.514;9.994;2022-12-07T05:54:32;3.00;99.90
981;DHT22;479;53.514;9.994;2022-12-07T05:56:59;3.00;99.90
981;DHT22;479;53.514;9.994;2022-12-07T05:59:26;3.00;99.90
981;DHT22;479;53.514;9.994;2022-12-07T06:01:56;3.00;99.90
981;DHT22;479;53.514;9.994;2022-12-07T06:04:24;3.00;99.90
981;DHT22;479;53.514;9.994;2022-12-07T06:06:51;3.00;99.90
981;DHT22;479;53.514;9.994;2022-12-07T06:09:20;2.90;99.90
981;DHT22;479;53.514;9.994;2022-12-07T06:11:47;2.90;99.90
981;DHT22;479;53.514;9.994;2022-12-07T06:14:31;2.90;99.90
981;DHT22;479;53.514;9.994;2022-12-07T06:16:59;3.00;99.90
981;DHT22;479;53.514;9.994;2022-12-07T06:19:26;3.00;99.90
981;DHT22;479;53.514;9.994;2022-12-07T06:21:54;3.00;99.90
981;DHT22;479;53.514;9.994;2022-12-07T06:24:21;3.00;99.90
981;DHT22;479;53.514;9.994;2022-12-07T06:26:49;3.00;99.90
981;DHT22;479;53.514;9.994;2022-12-07T06:29:17;3.00;99.90
981;DHT22;479;53.514;9.994;2022-12-07T06:31:44;3.10;99.90
981;DHT22;479;53.514;9.994;2022-12-07T06:34:14;3.10;99.90
981;DHT22;479;53.514;9.994;2022-12-07T06:36:41;3.10;99.90
981;DHT22;479;53.514;9.994;2022-12-07T06:39:08;3.10;99.90
981;DHT22;479;53.514;9.994;2022-12-07T06:41:35;3.20;99.90
981;DHT22;479;53.514;9.994;2022-12-07T06:44:04;3.10;99.90
981;DHT22;479;53.514;9.994;2022-12-07T06:46:31;3.10;99.90
981;DHT22;479;53.514;9.994;2022-12-07T06:48:58;3.10;99.90
981;DHT22;479;53.514;9.994;2022-12-07T06:51:26;3.10;99.90
981;DHT22;479;53.514;9.994;2022-12-07T06:53:53;3.10;99.90
981;DHT22;479;53.514;9.994;2022-12-07T06:56:20;3.00;99.90
981;DHT22;479;53.514;9.994;2022-12-07T06:58:48;3.00;99.90
981;DHT22;479;53.514;9.994;2022-12-07T07:01:17;3.00;99.90
981;DHT22;479;53.514;9.994;2022-12-07T07:03:45;3.00;99.90
981;DHT22;479;53.514;9.994;2022-12-07T07:06:13;3.00;99.90
981;DHT22;479;53.514;9.994;2022-12-07T07:08:41;3.00;99.90
981;DHT22;479;53.514;9.994;2022-12-07T07:11:08;3.00;99.90
981;DHT22;479;53.514;9.994;2022-12-07T07:13:35;3.00;99.90
981;DHT22;479;53.514;9.994;2022-12-07T07:16:03;3.00;99.90
981;DHT22;479;53.514;9.994;2022-12-07T07:18:30;3.00;99.90
981;DHT22;479;53.514;9.994;2022-12-07T07:20:57;3.00;99.90
981;DHT22;479;53.514;9.994;2022-12-07T07:23:24;3.00;99.90
981;DHT22;479;53.514;9.994;2022-12-07T07:25:52;3.00;99.90
981;DHT22;479;53.514;9.994;2022-12-07T07:28:19;3.00;99.90
981;DHT22;479;53.514;9.994;2022-12-07T07:30:46;3.00;99.90
981;DHT22;479;53.514;9.994;2022-12-07T07:33:13;3.10;99.90
981;DHT22;479;53.514;9.994;2022-12-07T07:35:40;3.10;99.90
981;DHT22;479;53.514;9.994;2022-12-07T07:38:08;3.10;99.90
981;DHT22;479;53.514;9.994;2022-12-07T07:40:35;3.10;99.90
981;DHT22;479;53.514;9.994;2022-12-07T07:43:03;3.10;99.90
981;DHT22;479;53.514;9.994;2022-12-07T07:45:30;3.10;99.90
981;DHT22;479;53.514;9.994;2022-12-07T07:47:57;3.10;99.90
981;DHT22;479;53.514;9.994;2022-12-07T07:50:24;3.20;99.90
981;DHT22;479;53.514;9.994;2022-12-07T07:52:51;3.20;99.90
981;DHT22;479;53.514;9.994;2022-12-07T07:55:18;3.20;99.90
981;DHT22;479;53.514;9.994;2022-12-07T07:57:45;3.20;99.90
981;DHT22;479;53.514;9.994;2022-12-07T08:00:15;3.20;99.90
981;DHT22;479;53.514;9.994;2022-12-07T08:02:42;3.20;99.90
981;DHT22;479;53.514;9.994;2022-12-07T08:05:10;3.20;99.90
981;DHT22;479;53.514;9.994;2022-12-07T08:07:37;3.20;99.90
981;DHT22;479;53.514;9.994;2022-12-07T08:10:05;3.30;99.90
981;DHT22;479;53.514;9.994;2022-12-07T08:12:35;3.30;99.90
981;DHT22;479;53.514;9.994;2022-12-07T08:15:03;3.30;99.90
981;DHT22;479;53.514;9.994;2022-12-07T08:17:33;3.30;99.90
981;DHT22;479;53.514;9.994;2022-12-07T08:19:59;3.40;99.90
981;DHT22;479;53.514;9.994;2022-12-07T08:22:26;3.40;99.90
981;DHT22;479;53.514;9.994;2022-12-07T08:24:53;3.50;99.90
981;DHT22;479;53.514;9.994;2022-12-07T08:27:20;3.50;99.90
981;DHT22;479;53.514;9.994;2022-12-07T08:29:52;3.50;99.90
981;DHT22;479;53.514;9.994;2022-12-07T08:32:19;3.50;99.90
981;DHT22;479;53.514;9.994;2022-12-07T08:34:47;3.60;99.90
981;DHT22;479;53.514;9.994;2022-12-07T08:37:14;3.60;99.90
981;DHT22;479;53.514;9.994;2022-12-07T08:39:41;3.60;99.90
981;DHT22;479;53.514;9.994;2022-12-07T08:42:08;3.60;99.90
981;DHT22;479;53.514;9.994;2022-12-07T08:44:35;3.60;99.90
981;DHT22;479;53.514;9.994;2022-12-07T08:47:04;3.70;99.90
981;DHT22;479;53.514;9.994;2022-12-07T08:49:34;3.70;99.90
981;DHT22;479;53.514;9.994;2022-12-07T08:52:07;3.70;99.90
981;DHT22;479;53.514;9.994;2022-12-07T08:54:38;3.70;99.90
981;DHT22;479;53.514;9.994;2022-12-07T08:57:06;3.70;99.90
981;DHT22;479;53.514;9.994;2022-12-07T08:59:35;3.80;99.90
981;DHT22;479;53.514;9.994;2022-12-07T09:02:04;3.90;99.90
981;DHT22;479;53.514;9.994;2022-12-07T09:04:31;4.00;99.90
981;DHT22;479;53.514;9.994;2022-12-07T09:06:58;4.00;99.90
981;DHT22;479;53.514;9.994;2022-12-07T09:09:27;4.10;99.90
981;DHT22;479;53.514;9.994;2022-12-07T09:11:54;4.10;99.90
981;DHT22;479;53.514;9.994;2022-12-07T09:14:21;4.20;99.90
981;DHT22;479;53.514;9.994;2022-12-07T09:16:48;4.20;99.90
981;DHT22;479;53.514;9.994;2022-12-07T09:19:14;4.20;99.90
981;DHT22;479;53.514;9.994;2022-12-07T09:21:41;4.30;99.90
981;DHT22;479;53.514;9.994;2022-12-07T09:24:08;4.30;99.90
981;DHT22;479;53.514;9.994;2022-12-07T09:26:36;4.30;99.90
981;DHT22;479;53.514;9.994;2022-12-07T09:29:05;4.40;99.90
981;DHT22;479;53.514;9.994;2022-12-07T09:31:31;4.40;99.90
981;DHT22;479;53.514;9.994;2022-12-07T09:33:59;4.40;99.90
981;DHT22;479;53.514;9.994;2022-12-07T09:36:27;4.50;99.90
981;DHT22;479;53.514;9.994;2022-12-07T09:38:55;4.60;99.90
981;DHT22;479;53.514;9.994;2022-12-07T09:41:23;4.60;99.90
981;DHT22;479;53.514;9.994;2022-12-07T09:43:52;4.70;99.90
981;DHT22;479;53.514;9.994;2022-12-07T09:46:20;4.70;99.90
981;DHT22;479;53.514;9.994;2022-12-07T09:48:49;4.70;99.90
981;DHT22;479;53.514;9.994;2022-12-07T09:51:19;4.80;99.90
981;DHT22;479;53.514;9.994;2022-12-07T09:53:46;4.80;99.90
981;DHT22;479;53.514;9.994;2022-12-07T09:56:14;4.80;99.90
981;DHT22;479;53.514;9.994;2022-12-07T09:58:42;4.80;99.90
981;DHT22;479;53.514;9.994;2022-12-07T10:01:13;4.80;99.90
981;DHT22;479;53.514;9.994;2022-12-07T10:03:45;4.80;99.90
981;DHT22;479;53.514;9.994;2022-12-07T10:06:14;4.90;99.90
981;DHT22;479;53.514;9.994;2022-12-07T10:08:40;4.90;99.90
981;DHT22;479;53.514;9.994;2022-12-07T10:11:09;5.00;99.90
981;DHT22;479;53.514;9.994;2022-12-07T10:13:39;4.90;99.90
981;DHT22;479;53.514;9.994;2022-12-07T10:16:06;4.90;99.90
981;DHT22;479;53.514;9.994;2022-12-07T10:18:55;4.90;99.90
981;DHT22;479;53.514;9.994;2022-12-07T10:21:23;4.80;99.90
981;DHT22;479;53.514;9.994;2022-12-07T10:24:01;4.80;99.90
981;DHT22;479;53.514;9.994;2022-12-07T10:26:33;4.90;99.90
981;DHT22;479;53.514;9.994;2022-12-07T10:29:04;4.90;99.90
981;DHT22;479;53.514;9.994;2022-12-07T10:31:39;4.80;99.90
981;DHT22;479;53.514;9.994;2022-12-07T10:34:20;4.80;99.90
981;DHT22;479;53.514;9.994;2022-12-07T10:36:47;4.90;99.90
981;DHT22;479;53.514;9.994;2022-12-07T10:39:15;4.80;99.90
981;DHT22;479;53.514;9.994;2022-12-07T10:41:56;4.80;99.90
981;DHT22;479;53.514;9.994;2022-12-07T10:44:25;4.90;99.90
981;DHT22;479;53.514;9.994;2022-12-07T10:47:03;4.80;99.90
981;DHT22;479;53.514;9.994;2022-12-07T10:49:51;4.80;99.90
981;DHT22;479;53.514;9.994;2022-12-07T10:52:33;4.80;99.90
981;DHT22;479;53.514;9.994;2022-12-07T10:55:14;4.80;99.90
981;DHT22;479;53.514;9.994;2022-12-07T10:57:51;4.90;99.90
981;DHT22;479;53.514;9.994;2022-12-07T11:00:21;5.00;99.90
981;DHT22;479;53.514;9.994;2022-12-07T11:03:10;5.20;99.90
981;DHT22;479;53.514;9.994;2022-12-07T11:05:45;5.20;99.90
981;DHT22;479;53.514;9.994;2022-12-07T11:08:21;5.30;99.90
981;DHT22;479;53.514;9.994;2022-12-07T11:10:54;5.30;99.90
981;DHT22;479;53.514;9.994;2022-12-07T11:13:25;5.40;99.90
981;DHT22;479;53.514;9.994;2022-12-07T11:16:09;5.40;99.90
981;DHT22;479;53.514;9.994;2022-12-07T11:21:42;5.40;99.90
981;DHT22;479;53.514;9.994;2022-12-07T11:24:15;5.50;99.90
981;DHT22;479;53.514;9.994;2022-12-07T11:26:51;5.30;99.90
981;DHT22;479;53.514;9.994;2022-12-07T11:29:47;5.30;99.90
981;DHT22;479;53.514;9.994;2022-12-07T11:32:21;5.50;99.90
981;DHT22;479;53.514;9.994;2022-12-07T11:34:56;5.50;99.90
981;DHT22;479;53.514;9.994;2022-12-07T11:37:31;5.50;99.90
981;DHT22;479;53.514;9.994;2022-12-07T11:40:01;5.50;99.90
981;DHT22;479;53.514;9.994;2022-12-07T11:42:33;5.50;99.90
981;DHT22;479;53.514;9.994;2022-12-07T11:45:12;5.50;99.90
981;DHT22;479;53.514;9.994;2022-12-07T11:47:45;5.60;99.90
981;DHT22;479;53.514;9.994;2022-12-07T11:50:27;5.90;99.90
981;DHT22;479;53.514;9.994;2022-12-07T11:52:58;5.80;99.90
981;DHT22;479;53.514;9.994;2022-12-07T11:55:30;5.60;99.90
981;DHT22;479;53.514;9.994;2022-12-07T11:58:04;5.60;99.90
981;DHT22;479;53.514;9.994;2022-12-07T12:00:31;5.60;99.90
981;DHT22;479;53.514;9.994;2022-12-07T12:03:03;5.50;99.90
981;DHT22;479;53.514;9.994;2022-12-07T12:05:31;5.50;99.90
981;DHT22;479;53.514;9.994;2022-12-07T12:08:05;5.80;99.90
981;DHT22;479;53.514;9.994;2022-12-07T12:10:45;5.60;99.90
981;DHT22;479;53.514;9.994;2022-12-07T12:13:44;5.50;99.90
981;DHT22;479;53.514;9.994;2022-12-07T12:16:37;5.60;99.90
981;DHT22;479;53.514;9.994;2022-12-07T12:19:21;5.90;99.90
981;DHT22;479;53.514;9.994;2022-12-07T12:21:54;5.80;99.90
981;DHT22;479;53.514;9.994;2022-12-07T12:24:25;5.80;99.90
981;DHT22;479;53.514;9.994;2022-12-07T12:26:56;5.80;99.90
981;DHT22;479;53.514;9.994;2022-12-07T12:29:30;5.70;99.90
981;DHT22;479;53.514;9.994;2022-12-07T12:32:06;5.70;99.90
981;DHT22;479;53.514;9.994;2022-12-07T12:34:41;5.70;99.90
981;DHT22;479;53.514;9.994;2022-12-07T12:37:42;5.90;99.90
981;DHT22;479;53.514;9.994;2022-12-07T12:40:40;5.90;99.90
981;DHT22;479;53.514;9.994;2022-12-07T12:46:38;5.90;99.90
981;DHT22;479;53.514;9.994;2022-12-07T12:49:38;6.20;99.90
981;DHT22;479;53.514;9.994;2022-12-07T12:55:13;6.20;99.90
981;DHT22;479;53.514;9.994;2022-12-07T12:57:46;6.10;99.90
981;DHT22;479;53.514;9.994;2022-12-07T13:00:18;6.10;99.90
981;DHT22;479;53.514;9.994;2022-12-07T13:02:49;6.20;99.90
981;DHT22;479;53.514;9.994;2022-12-07T13:05:19;5.90;99.90
981;DHT22;479;53.514;9.994;2022-12-07T13:07:54;5.70;99.90
981;DHT22;479;53.514;9.994;2022-12-07T13:10:34;5.50;99.90
981;DHT22;479;53.514;9.994;2022-12-07T13:13:25;5.50;99.90
981;DHT22;479;53.514;9.994;2022-12-07T13:15:52;5.60;99.90
981;DHT22;479;53.514;9.994;2022-12-07T13:18:24;5.50;99.90
981;DHT22;479;53.514;9.994;2022-12-07T13:20:54;5.50;99.90
981;DHT22;479;53.514;9.994;2022-12-07T13:23:26;5.50;99.90
981;DHT22;479;53.514;9.994;2022-12-07T13:26:00;5.50;99.90
981;DHT22;479;53.514;9.994;2022-12-07T13:28:35;5.50;99.90
981;DHT22;479;53.514;9.994;2022-12-07T13:34:02;5.60;99.90
981;DHT22;479;53.514;9.994;2022-12-07T13:36:32;5.60;99.90
981;DHT22;479;53.514;9.994;2022-12-07T13:39:16;5.70;99.90
981;DHT22;479;53.514;9.994;2022-12-07T13:41:48;5.70;99.90
981;DHT22;479;53.514;9.994;2022-12-07T13:44:18;5.70;99.90
981;DHT22;479;53.514;9.994;2022-12-07T13:46:52;5.80;99.90
981;DHT22;479;53.514;9.994;2022-12-07T13:49:23;5.80;99.90
981;DHT22;479;53.514;9.994;2022-12-07T13:51:50;5.90;99.90
981;DHT22;479;53.514;9.994;2022-12-07T13:54:19;5.80;99.90
981;DHT22;479;53.514;9.994;2022-12-07T13:56:48;5.60;99.90
981;DHT22;479;53.514;9.994;2022-12-07T13:59:19;5.70;99.90
981;DHT22;479;53.514;9.994;2022-12-07T14:01:48;5.70;99.90
981;DHT22;479;53.514;9.994;2022-12-07T14:04:32;5.60;99.90
981;DHT22;479;53.514;9.994;2022-12-07T14:06:59;5.60;99.90
981;DHT22;479;53.514;9.994;2022-12-07T14:09:28;5.60;99.90
981;DHT22;479;53.514;9.994;2022-12-07T14:11:56;5.60;99.90
981;DHT22;479;53.514;9.994;2022-12-07T14:14:27;5.80;99.90
981;DHT22;479;53.514;9.994;2022-12-07T14:17:00;5.70;99.90
981;DHT22;479;53.514;9.994;2022-12-07T14:19:45;5.60;99.90
981;DHT22;479;53.514;9.994;2022-12-07T14:22:26;5.60;99.90
981;DHT22;479;53.514;9.994;2022-12-07T14:25:01;5.70;99.90
981;DHT22;479;53.514;9.994;2022-12-07T14:27:32;5.70;99.90
981;DHT22;479;53.514;9.994;2022-12-07T14:30:02;5.70;99.90
981;DHT22;479;53.514;9.994;2022-12-07T14:32:29;5.60;99.90
981;DHT22;479;53.514;9.994;2022-12-07T14:34:59;5.60;99.90
981;DHT22;479;53.514;9.994;2022-12-07T14:37:27;5.50;99.90
981;DHT22;479;53.514;9.994;2022-12-07T14:39:55;5.40;99.90
981;DHT22;479;53.514;9.994;2022-12-07T14:42:26;5.40;99.90
981;DHT22;479;53.514;9.994;2022-12-07T14:44:53;5.30;99.90
981;DHT22;479;53.514;9.994;2022-12-07T14:47:22;5.30;99.90
981;DHT22;479;53.514;9.994;2022-12-07T14:49:49;5.10;99.90
981;DHT22;479;53.514;9.994;2022-12-07T14:52:18;5.00;99.90
981;DHT22;479;53.514;9.994;2022-12-07T14:54:45;5.10;99.90
981;DHT22;479;53.514;9.994;2022-12-07T14:57:13;5.00;99.90
981;DHT22;479;53.514;9.994;2022-12-07T14:59:40;4.90;99.90
981;DHT22;479;53.514;9.994;2022-12-07T15:02:09;5.00;99.90
981;DHT22;479;53.514;9.994;2022-12-07T15:04:39;5.10;99.90
981;DHT22;479;53.514;9.994;2022-12-07T15:07:10;5.00;99.90
981;DHT22;479;53.514;9.994;2022-12-07T15:09:39;4.90;99.90
981;DHT22;479;53.514;9.994;2022-12-07T15:12:06;5.00;99.90
981;DHT22;479;53.514;9.994;2022-12-07T15:14:33;4.90;99.90
981;DHT22;479;53.514;9.994;2022-12-07T15:17:00;4.90;99.90
981;DHT22;479;53.514;9.994;2022-12-07T15:19:27;5.00;99.90
981;DHT22;479;53.514;9.994;2022-12-07T15:21:57;5.20;99.90
981;DHT22;479;53.514;9.994;2022-12-07T15:24:25;5.10;99.90
981;DHT22;479;53.514;9.994;2022-12-07T15:26:53;5.10;99.90
981;DHT22;479;53.514;9.994;2022-12-07T15:29:20;5.10;99.90
981;DHT22;479;53.514;9.994;2022-12-07T15:31:48;5.20;99.90
981;DHT22;479;53.514;9.994;2022-12-07T15:34:15;5.10;99.90
981;DHT22;479;53.514;9.994;2022-12-07T15:36:42;5.10;99.90
981;DHT22;479;53.514;9.994;2022-12-07T15:39:10;4.90;99.90
981;DHT22;479;53.514;9.994;2022-12-07T15:41:37;4.80;99.90
981;DHT22;479;53.514;9.994;2022-12-07T15:44:04;4.80;99.90
981;DHT22;479;53.514;9.994;2022-12-07T15:46:49;4.70;99.90
981;DHT22;479;53.514;9.994;2022-12-07T15:49:17;4.70;99.90
981;DHT22;479;53.514;9.994;2022-12-07T15:51:47;4.80;99.90
981;DHT22;479;53.514;9.994;2022-12-07T15:54:20;4.70;99.90
981;DHT22;479;53.514;9.994;2022-12-07T15:56:47;4.40;99.90
981;DHT22;479;53.514;9.994;2022-12-07T15:59:14;4.20;99.90
981;DHT22;479;53.514;9.994;2022-12-07T16:01:42;4.10;99.90
981;DHT22;479;53.514;9.994;2022-12-07T16:04:09;4.00;99.90
981;DHT22;479;53.514;9.994;2022-12-07T16:06:35;4.00;99.90
981;DHT22;479;53.514;9.994;2022-12-07T16:09:03;4.30;99.90
981;DHT22;479;53.514;9.994;2022-12-07T16:11:31;4.40;99.90
981;DHT22;479;53.514;9.994;2022-12-07T16:13:58;4.40;99.90
981;DHT22;479;53.514;9.994;2022-12-07T16:16:25;4.50;99.90
981;DHT22;479;53.514;9.994;2022-12-07T16:18:53;4.40;99.90
981;DHT22;479;53.514;9.994;2022-12-07T16:21:20;4.40;99.90
981;DHT22;479;53.514;9.994;2022-12-07T16:23:47;4.50;99.90
981;DHT22;479;53.514;9.994;2022-12-07T16:26:16;4.30;99.90
981;DHT22;479;53.514;9.994;2022-12-07T16:28:44;4.20;99.90
981;DHT22;479;53.514;9.994;2022-12-07T16:31:14;4.10;99.90
981;DHT22;479;53.514;9.994;2022-12-07T16:33:42;4.10;99.90
981;DHT22;479;53.514;9.994;2022-12-07T16:36:10;4.00;99.90
981;DHT22;479;53.514;9.994;2022-12-07T16:38:38;4.00;99.90
981;DHT22;479;53.514;9.994;2022-12-07T16:41:06;3.90;99.90
981;DHT22;479;53.514;9.994;2022-12-07T16:43:34;3.80;99.90
981;DHT22;479;53.514;9.994;2022-12-07T16:46:03;3.90;99.90
981;DHT22;479;53.514;9.994;2022-12-07T16:48:30;3.90;99.90
981;DHT22;479;53.514;9.994;2022-12-07T16:50:57;3.80;99.90
981;DHT22;479;53.514;9.994;2022-12-07T16:53:24;3.90;99.90
981;DHT22;479;53.514;9.994;2022-12-07T16:55:51;4.20;99.90
981;DHT22;479;53.514;9.994;2022-12-07T16:58:18;4.10;99.90
981;DHT22;479;53.514;9.994;2022-12-07T17:00:46;4.30;99.90
981;DHT22;479;53.514;9.994;2022-12-07T17:03:15;4.70;99.90
981;DHT22;479;53.514;9.994;2022-12-07T17:05:44;4.90;99.90
981;DHT22;479;53.514;9.994;2022-12-07T17:08:12;5.20;99.90
981;DHT22;479;53.514;9.994;2022-12-07T17:10:41;4.90;99.90
981;DHT22;479;53.514;9.994;2022-12-07T17:13:09;4.50;99.90
981;DHT22;479;53.514;9.994;2022-12-07T17:16:02;4.40;99.90
981;DHT22;479;53.514;9.994;2022-12-07T17:18:34;4.40;99.90
981;DHT22;479;53.514;9.994;2022-12-07T17:21:02;4.20;99.90
981;DHT22;479;53.514;9.994;2022-12-07T17:23:30;4.10;99.90
981;DHT22;479;53.514;9.994;2022-12-07T17:26:04;4.00;99.90
981;DHT22;479;53.514;9.994;2022-12-07T17:28:31;3.80;99.90